Have a Safe July 4th! 

Flight Track Log - Related Links

Times and Time Zones

All times are in EDT time to prevent confusion due to time zone crossing. See the ASH3733 flight status page for this flight to view local times or setup timezone preferences in your user account.

Time Position Orientation Groundspeed Altitude Reporting Facility
EDT Latitude Longitude Course Direction KTS MPH feet Rate Location/Type
Tue 05:54:13 AM 41.7061 -71.4419 264° West 150 173 900  Level Boston Center
Tue 05:55:14 AM 41.7025 -71.4892 264° West 163 188 2,600 2,281 Climbing Boston Center
Tue 05:56:14 AM 41.7322 -71.5583 300° West 179 206 5,500 2,850 Climbing Boston Center
Tue 05:57:14 AM 41.7889 -71.6300 317° Northwest 234 269 8,300 2,700 Climbing Boston Center
Tue 05:58:14 AM 41.8500 -71.7072 317° Northwest 267 307 10,900 2,521 Climbing Boston Center
Tue 05:59:13 AM 41.9044 -71.7789 316° Northwest 293 337 13,300 2,824 Climbing Boston Center
Tue 06:00:13 AM 41.9614 -71.8733 309° West 307 353 16,500 2,479 Climbing Boston Center
Tue 06:01:14 AM 41.9869 -71.9819 288° West 296 341 18,300 1,587 Climbing Boston Center
Tue 06:02:14 AM 42.0122 -72.0797 289° West 308 354 19,700 1,664 Climbing Boston Center
Tue 06:03:13 AM 42.0083 -72.1942 267° West 308 354 21,600 1,900 Climbing Boston Center
Tue 06:04:14 AM 41.9711 -72.3117 247° West 320 368 23,500 1,100 Climbing Boston Center
Tue 06:05:13 AM 41.9356 -72.4344 249° West 337 388 23,800 756 Climbing Boston Center
Tue 06:06:13 AM 41.8939 -72.5711 248° West 367 422 25,000 1,190 Climbing Boston Center
Tue 06:07:14 AM 41.8542 -72.7047 248° West 386 444 26,200 1,180 Climbing Boston Center
Tue 06:08:15 AM 41.8119 -72.8439 248° West 394 453 27,400 1,525 Climbing Boston Center
Tue 06:09:16 AM 41.7925 -72.9886 260° West 402 463 29,300 1,627 Climbing Boston Center
Tue 06:10:13 AM 41.8044 -73.1308 276° West 388 447 30,600 1,385 Climbing Boston Center
Tue 06:11:13 AM 41.8158 -73.2675 276° West 381 438 32,000 542 Climbing Boston Center
Tue 06:12:48 AM 41.8297 -73.4964 275° West 386 444 32,000  Level New York Center
Tue 06:13:46 AM 41.8369 -73.6331 274° West 386 444 32,000  Level New York Center
Tue 06:14:46 AM 41.8067 -73.7653 253° West 372 428 32,000  Level New York Center
Tue 06:15:47 AM 41.7250 -73.8589 221° Southwest 365 420 32,000  Level New York Center
Tue 06:16:48 AM 41.6314 -73.9433 214° Southwest 379 436 32,000  Level New York Center
Tue 06:17:46 AM 41.5503 -74.0144 213° Southwest 391 450 32,000  Level New York Center
Tue 06:18:46 AM 41.4561 -74.1011 215° Southwest 406 467 32,000  Level New York Center
Tue 06:19:47 AM 41.3600 -74.1875 214° Southwest 416 479 32,000 -400 Level New York Center
Tue 06:20:46 AM 41.2511 -74.2786 212° Southwest 422 486 31,200 -850 Descending New York Center
Tue 06:21:47 AM 41.1547 -74.3672 215° Southwest 427 491 30,300 -942 Descending New York Center
Tue 06:22:47 AM 41.0497 -74.4606 214° Southwest 441 507 29,300 -1,041 Descending New York Center
Tue 06:23:48 AM 40.9447 -74.5567 215° Southwest 453 521 28,200 -645 Descending New York Center
Tue 06:24:48 AM 40.8761 -74.6764 233° Southwest 425 489 28,000 -203 Descending New York Center
Tue 06:25:46 AM 40.8361 -74.8167 249° West 419 482 27,800 -908 Descending New York Center
Tue 06:26:47 AM 40.7794 -74.9447 240° Southwest 413 475 26,200 -1,388 Descending New York Center
Tue 06:27:47 AM 40.7142 -75.0831 238° Southwest 423 487 25,000 -595 Descending New York Center
Tue 06:28:48 AM 40.6553 -75.2081 238° Southwest 423 487 25,000  Level New York Center
Tue 06:29:46 AM 40.5944 -75.3297 237° Southwest 411 473 25,000 -458 Level New York Center
Tue 06:30:46 AM 40.5375 -75.4517 238° Southwest 399 459 24,100 -1,180 Descending New York Center
Tue 06:31:48 AM 40.4783 -75.5758 238° Southwest 399 459 22,600 -1,500 Descending New York Center
Tue 06:32:46 AM 40.4172 -75.6969 236° Southwest 399 459 21,100 -1,311 Descending New York Center
Tue 06:33:47 AM 40.3556 -75.8206 237° Southwest 399 459 20,000 -541 Descending New York Center
Tue 06:34:48 AM 40.3011 -75.9256 236° Southwest 394 453 20,000 -250 Level New York Center
Tue 06:35:47 AM 40.2436 -76.0436 237° Southwest 394 453 19,500 -1,059 Descending New York Center
Tue 06:36:47 AM 40.1794 -76.1719 237° Southwest 389 448 17,900 -1,311 Descending New York Center
Tue 06:37:46 AM 40.1222 -76.2842 236° Southwest 389 448 16,900 -1,210 Descending New York Center
Tue 06:38:46 AM 40.0686 -76.4019 239° Southwest 389 448 15,500 -735 Descending New York Center
Tue 06:40:21 AM 39.9833 -76.5833 239° Southwest 373 429 15,000 -194 Descending Potomac TRACON
Tue 06:41:21 AM 39.9333 -76.7000 241° Southwest 376 433 15,000  Level Potomac TRACON
Tue 06:42:21 AM 39.8833 -76.8167 241° Southwest 369 425 15,000  Level Potomac TRACON
Tue 06:43:20 AM 39.8333 -76.9167 237° Southwest 293 337 15,000  Level Potomac TRACON
Tue 06:44:15 AM 39.8000 -76.9833 237° Southwest 291 335 15,000 -661 Level Potomac TRACON
Tue 06:45:09 AM 39.7500 -77.0667 232° Southwest 300 345 13,800 -1,421 Descending Potomac TRACON
Tue 06:46:09 AM 39.7167 -77.1500 243° Southwest 288 331 12,300 -1,500 Descending Potomac TRACON
Tue 06:47:09 AM 39.6833 -77.2333 243° Southwest 278 320 10,800 -1,526 Descending Potomac TRACON
Tue 06:48:03 AM 39.6333 -77.3167 232° Southwest 278 320 9,400 -1,368 Descending Potomac TRACON
Tue 06:49:03 AM 39.5833 -77.3833 226° Southwest 275 316 8,200 -1,200 Descending Potomac TRACON
Tue 06:50:03 AM 39.5667 -77.4667 255° West 236 272 7,000 -626 Descending Potomac TRACON
Tue 06:50:58 AM 39.5333 -77.5000 218° Southwest 225 259 7,000  Level Potomac TRACON
Tue 06:51:58 AM 39.4667 -77.4667 159° South 235 270 7,000 -400 Level Potomac TRACON
Tue 06:52:58 AM 39.4000 -77.4500 169° South 228 262 6,200 -526 Descending Potomac TRACON
Tue 06:53:52 AM 39.3500 -77.4500 180° South 215 247 6,000 -474 Descending Potomac TRACON
Tue 06:54:52 AM 39.2833 -77.4500 180° South 220 253 5,300 -500 Descending Potomac TRACON
Tue 06:55:52 AM 39.2333 -77.4500 180° South 171 197 5,000 -200 Descending Potomac TRACON
Tue 06:56:52 AM 39.2000 -77.4500 180° South 157 181 4,900 -600 Descending Potomac TRACON
Tue 06:57:52 AM 39.1500 -77.4500 180° South 157 181 3,800 -950 Descending Potomac TRACON
Tue 06:58:52 AM 39.1167 -77.4500 180° South 144 166 3,000 -750 Descending Potomac TRACON
Tue 06:59:52 AM 39.0667 -77.4500 180° South 143 165 2,300 -744 Descending Potomac TRACON
Tue 07:00:53 AM 39.0333 -77.4667 201° Southwest 139 160 1,500 -744 Descending Potomac TRACON
Tue 07:01:53 AM 39.0000 -77.4667 180° South 134 154 800 -700 Descending Potomac TRACON

Login

Don't have an account? Register now (free) for customized features, flight alerts, and more!